Time;durP1;ratioP1;P1;durP2;ratioP2;P2;SDS_P1;SDS_P2;PMS_P1;PMS_P2;Temp;Humidity;BMP_temperature;BMP_pressure;BME280_temperature;BME280_humidity;BME280_pressure;Samples;Min_cycle;Max_cycle;Signal;HPM_P1;HPM_P2
2022/04/28 00:00:41;;;;;;;;;8.60;8.60;;;;;;;;5227243;28;8944;-69
2022/04/28 00:03:12;;;;;;;;;35.80;34.40;;;;;;;;5200748;28;8788;-70
2022/04/28 00:05:43;;;;;;;;;25.20;25.20;;;;;;;;5223530;28;8782;-70
2022/04/28 00:08:14;;;;;;;;;38.00;36.80;;;;;;;;5225937;28;8782;-70
2022/04/28 00:10:45;;;;;;;;;15.20;15.00;;;;;;;;5209313;28;9595;-71
2022/04/28 00:13:17;;;;;;;;;2.80;2.80;;;;;;;;5226022;28;8792;-70
2022/04/28 00:15:48;;;;;;;;;5.00;5.00;;;;;;;;5225442;28;8910;-70
2022/04/28 00:18:19;;;;;;;;;3.00;3.00;;;;;;;;5209442;28;8948;-69
2022/04/28 00:20:50;;;;;;;;;0.00;0.00;;;;;;;;5227259;28;9551;-71
2022/04/28 00:23:39;;;;;;;;;3.40;3.40;;;;;;;;5225554;28;11507;-72
2022/04/28 00:26:10;;;;;;;;;4.00;3.50;;;;;;;;5225956;28;8802;-71
2022/04/28 00:28:41;;;;;;;;;0.00;0.00;;;;;;;;5208989;28;11470;-71
2022/04/28 00:31:30;;;;;;;;;37.20;35.20;;;;;;;;5218706;28;8800;-70
2022/04/28 00:34:03;;;;;;;;;71.00;48.60;;;;;;;;5205515;28;8803;-71
2022/04/28 00:36:34;;;;;;;;;34.80;34.60;;;;;;;;5188474;28;8796;-71
2022/04/28 00:39:06;;;;;;;;;9.00;9.00;;;;;;;;5204486;28;8820;-70
2022/04/28 00:41:37;;;;;;;;;18.20;18.00;;;;;;;;5205753;28;8789;-70
2022/04/28 00:44:10;;;;;;;;;47.50;44.25;;;;;;;;5204636;28;8839;-70
2022/04/28 00:46:43;;;;;;;;;5.40;5.40;;;;;;;;5213725;28;11481;-70
2022/04/28 00:52:04;;;;;;;;;10.20;10.20;;;;;;;;5208624;28;8790;-70
2022/04/28 00:54:36;;;;;;;;;0.80;0.80;;;;;;;;5225080;28;8815;-68
2022/04/28 00:57:07;;;;;;;;;8.50;8.50;;;;;;;;5225000;28;8774;-68
2022/04/28 00:59:39;;;;;;;;;5.40;5.40;;;;;;;;5221045;28;10254;-70
2022/04/28 01:02:10;;;;;;;;;1.00;1.00;;;;;;;;5210511;28;8796;-69
2022/04/28 01:04:41;;;;;;;;;2.80;2.80;;;;;;;;5204451;28;8784;-68
2022/04/28 01:07:31;;;;;;;;;5.40;5.40;;;;;;;;5205903;28;8790;-69
2022/04/28 01:10:03;;;;;;;;;13.25;12.25;;;;;;;;5205095;28;8792;-68
2022/04/28 01:12:36;;;;;;;;;32.20;31.60;;;;;;;;5203997;28;8811;-68
2022/04/28 01:15:07;;;;;;;;;21.60;18.40;;;;;;;;5203983;28;8788;-68
2022/04/28 01:17:56;;;;;;;;;15.40;15.40;;;;;;;;5221248;28;8822;-68
2022/04/28 01:20:27;;;;;;;;;11.50;11.50;;;;;;;;5207624;28;8832;-69
2022/04/28 01:22:58;;;;;;;;;46.40;39.20;;;;;;;;5224407;28;11506;-68
2022/04/28 01:25:29;;;;;;;;;73.60;56.00;;;;;;;;5223920;28;9734;-69
2022/04/28 01:28:01;;;;;;;;;11.40;11.40;;;;;;;;5205924;28;8789;-68
2022/04/28 01:30:36;;;;;;;;;32.40;31.00;;;;;;;;5187309;28;8910;-68
2022/04/28 01:33:07;;;;;;;;;13.40;13.40;;;;;;;;5203861;28;8842;-68
2022/04/28 01:35:38;;;;;;;;;6.20;6.20;;;;;;;;5205331;28;8816;-70
2022/04/28 01:38:09;;;;;;;;;6.40;6.40;;;;;;;;5203712;28;8811;-70
2022/04/28 01:40:40;;;;;;;;;8.40;8.40;;;;;;;;5203767;28;8933;-71
2022/04/28 01:43:11;;;;;;;;;50.50;41.00;;;;;;;;5208633;28;9592;-71
2022/04/28 01:45:43;;;;;;;;;68.60;55.60;;;;;;;;5207731;28;8786;-71
2022/04/28 01:48:14;;;;;;;;;141.67;124.00;;;;;;;;5225324;28;8785;-71
2022/04/28 01:56:48;;;;;;;;;48.20;42.00;;;;;;;;5206556;28;8808;-69
2022/04/28 01:59:30;;;;;;;;;3.60;3.60;;;;;;;;5204471;28;8832;-69
2022/04/28 02:02:03;;;;;;;;;14.80;14.80;;;;;;;;5204597;28;8803;-68
2022/04/28 02:04:35;;;;;;;;;12.00;12.00;;;;;;;;5203452;28;8781;-69
2022/04/28 02:07:11;;;;;;;;;0.60;0.60;;;;;;;;5187504;28;9632;-68
2022/04/28 02:09:45;;;;;;;;;18.80;18.80;;;;;;;;5203199;28;8812;-71
2022/04/28 02:12:17;;;;;;;;;20.40;19.20;;;;;;;;5187144;28;8804;-71
2022/04/28 02:15:14;;;;;;;;;1.00;1.00;;;;;;;;5196339;28;8831;-71
2022/04/28 02:18:04;;;;;;;;;7.20;7.20;;;;;;;;5204475;28;8946;-71
2022/04/28 02:20:36;;;;;;;;;1.60;1.60;;;;;;;;5203914;28;8800;-71
2022/04/28 02:23:07;;;;;;;;;0.00;0.00;;;;;;;;5203577;28;8842;-69
2022/04/28 02:25:41;;;;;;;;;8.80;8.80;;;;;;;;5203200;28;8826;-71
2022/04/28 02:28:13;;;;;;;;;1.60;1.60;;;;;;;;5194353;28;8806;-72
2022/04/28 02:30:44;;;;;;;;;0.00;0.00;;;;;;;;5205303;28;8820;-71
2022/04/28 02:33:18;;;;;;;;;0.00;0.00;;;;;;;;5213206;28;8917;-70
2022/04/28 02:35:57;;;;;;;;;0.80;0.80;;;;;;;;5212525;28;8804;-70
2022/04/28 02:38:28;;;;;;;;;18.25;18.25;;;;;;;;5193168;28;8845;-70
2022/04/28 02:40:59;;;;;;;;;9.20;9.20;;;;;;;;5225631;28;10338;-70
2022/04/28 02:43:30;;;;;;;;;81.60;60.60;;;;;;;;5225332;28;9527;-70
2022/04/28 02:46:34;;;;;;;;;2.40;2.40;;;;;;;;5216391;28;9607;-70
2022/04/28 02:49:12;;;;;;;;;17.60;17.20;;;;;;;;5226069;28;9614;-72
2022/04/28 02:51:43;;;;;;;;;37.80;37.60;;;;;;;;5225550;28;8796;-70
2022/04/28 02:54:14;;;;;;;;;59.20;51.00;;;;;;;;5226630;28;8822;-72
2022/04/28 02:56:53;;;;;;;;;4.00;4.00;;;;;;;;5225017;28;9567;-71
2022/04/28 02:59:25;;;;;;;;;15.60;15.60;;;;;;;;5206500;28;8805;-69
2022/04/28 03:01:56;;;;;;;;;1.00;1.00;;;;;;;;5219799;28;8846;-68
2022/04/28 03:04:46;;;;;;;;;22.40;21.60;;;;;;;;5212455;28;8837;-67
2022/04/28 03:12:56;;;;;;;;;11.40;10.60;;;;;;;;5206955;28;8803;-66
2022/04/28 03:15:34;;;;;;;;;2.20;2.20;;;;;;;;5206601;28;8788;-66
2022/04/28 03:18:06;;;;;;;;;2.00;2.00;;;;;;;;5178098;28;8816;-67
2022/04/28 03:20:37;;;;;;;;;0.00;0.00;;;;;;;;5215653;28;8826;-68
2022/04/28 03:23:11;;;;;;;;;0.00;0.00;;;;;;;;5227951;28;8925;-68
2022/04/28 03:25:42;;;;;;;;;1.00;1.00;;;;;;;;5226487;28;8928;-67
2022/04/28 03:28:13;;;;;;;;;0.60;0.60;;;;;;;;5205917;28;8815;-67
2022/04/28 03:30:44;;;;;;;;;1.25;1.25;;;;;;;;5220239;28;8794;-68
2022/04/28 03:33:21;;;;;;;;;6.00;6.00;;;;;;;;5210601;28;8782;-68
2022/04/28 03:35:53;;;;;;;;;159.00;121.50;;;;;;;;5226566;28;8789;-68
2022/04/28 03:38:24;;;;;;;;;56.20;49.20;;;;;;;;5226996;28;8813;-68
2022/04/28 03:40:56;;;;;;;;;25.40;23.20;;;;;;;;5209932;28;8839;-67
2022/04/28 03:43:26;;;;;;;;;4.00;4.00;;;;;;;;5218156;28;8813;-68
2022/04/28 03:45:58;;;;;;;;;0.20;0.20;;;;;;;;5194042;28;8986;-67
2022/04/28 03:48:29;;;;;;;;;87.60;61.40;;;;;;;;5226012;28;8798;-67
2022/04/28 03:51:18;;;;;;;;;104.50;73.50;;;;;;;;5227656;28;8805;-68
2022/04/28 03:53:49;;;;;;;;;13.00;11.40;;;;;;;;5224523;28;8785;-69
2022/04/28 03:56:21;;;;;;;;;65.80;54.00;;;;;;;;5225950;28;8785;-69
2022/04/28 03:58:52;;;;;;;;;83.40;66.20;;;;;;;;5225713;28;8896;-68
2022/04/28 04:01:24;;;;;;;;;51.25;40.75;;;;;;;;5225879;28;8789;-68
2022/04/28 04:04:11;;;;;;;;;78.60;61.60;;;;;;;;5225890;28;9981;-69
2022/04/28 04:06:49;;;;;;;;;106.25;77.00;;;;;;;;5209688;28;8785;-69
2022/04/28 04:09:46;;;;;;;;;48.20;44.40;;;;;;;;5197091;28;8881;-69
2022/04/28 04:12:36;;;;;;;;;13.40;13.40;;;;;;;;5206292;28;8804;-69
2022/04/28 04:15:07;;;;;;;;;5.50;5.50;;;;;;;;5206687;28;9700;-69
2022/04/28 04:18:10;;;;;;;;;4.20;4.20;;;;;;;;5193993;28;11501;-69
2022/04/28 04:21:04;;;;;;;;;6.60;6.60;;;;;;;;5195831;28;8800;-69
2022/04/28 04:23:36;;;;;;;;;12.00;8.80;;;;;;;;5188534;28;8792;-69
2022/04/28 04:26:08;;;;;;;;;23.00;22.40;;;;;;;;5208635;28;9613;-68
2022/04/28 04:28:41;;;;;;;;;19.00;18.00;;;;;;;;5208810;28;8789;-68
2022/04/28 04:34:54;;;;;;;;;1.80;1.00;;;;;;;;5225977;28;8935;-68
2022/04/28 04:37:28;;;;;;;;;2.00;2.00;;;;;;;;5224857;28;9426;-69
2022/04/28 04:39:59;;;;;;;;;16.40;15.60;;;;;;;;5221690;28;8848;-68
2022/04/28 04:42:30;;;;;;;;;5.40;5.40;;;;;;;;5204632;28;8819;-69
2022/04/28 04:45:06;;;;;;;;;3.80;3.20;;;;;;;;5192660;28;8828;-69
2022/04/28 04:47:53;;;;;;;;;15.00;15.00;;;;;;;;5224796;28;8810;-69
2022/04/28 04:50:42;;;;;;;;;19.20;18.40;;;;;;;;5226063;28;8854;-66
2022/04/28 04:53:24;;;;;;;;;17.40;15.60;;;;;;;;5218375;28;8930;-67
2022/04/28 04:55:55;;;;;;;;;5.75;5.75;;;;;;;;5224253;28;8778;-70
2022/04/28 04:58:26;;;;;;;;;4.00;4.00;;;;;;;;5208327;28;12261;-70
2022/04/28 05:01:01;;;;;;;;;5.00;5.00;;;;;;;;5223606;28;9563;-70
2022/04/28 05:03:55;;;;;;;;;8.00;8.00;;;;;;;;5220309;28;8799;-66
2022/04/28 05:06:54;;;;;;;;;8.00;8.00;;;;;;;;5196479;28;8875;-69
2022/04/28 05:09:31;;;;;;;;;15.80;15.80;;;;;;;;5184187;28;8835;-69
2022/04/28 05:12:03;;;;;;;;;27.80;22.80;;;;;;;;5190832;28;8807;-68
2022/04/28 05:14:38;;;;;;;;;105.80;82.00;;;;;;;;5192164;28;8808;-68
2022/04/28 05:17:09;;;;;;;;;13.60;13.60;;;;;;;;5209619;28;8812;-68
2022/04/28 05:20:15;;;;;;;;;13.20;13.20;;;;;;;;5208413;28;8800;-69
2022/04/28 05:23:04;;;;;;;;;16.00;15.00;;;;;;;;5212758;28;8819;-67
2022/04/28 05:26:01;;;;;;;;;13.00;13.00;;;;;;;;5222377;28;8818;-68
2022/04/28 05:28:53;;;;;;;;;3.00;3.00;;;;;;;;5225032;28;8920;-68
2022/04/28 05:31:47;;;;;;;;;11.60;11.60;;;;;;;;5215209;28;8944;-68
2022/04/28 05:34:36;;;;;;;;;6.00;6.00;;;;;;;;5226156;28;8782;-68
2022/04/28 05:37:20;;;;;;;;;4.00;4.00;;;;;;;;5224402;28;8814;-68
2022/04/28 05:39:52;;;;;;;;;6.60;5.60;;;;;;;;5204894;28;8927;-68
2022/04/28 05:45:41;;;;;;;;;0.40;0.40;;;;;;;;5202330;28;8934;-69
2022/04/28 05:48:04;;;;;;;;;3.40;3.40;;;;;;;;5202948;28;9571;-69
2022/04/28 05:50:42;;;;;;;;;6.20;6.20;;;;;;;;5188496;28;8824;-68
2022/04/28 05:53:13;;;;;;;;;7.80;7.80;;;;;;;;5202164;28;8796;-68
2022/04/28 05:55:46;;;;;;;;;9.80;9.80;;;;;;;;5201889;28;8800;-69
2022/04/28 05:58:17;;;;;;;;;22.80;18.80;;;;;;;;5201759;28;8842;-68
2022/04/28 06:00:55;;;;;;;;;3.60;3.60;;;;;;;;5201688;28;9543;-68
2022/04/28 06:03:26;;;;;;;;;25.80;25.00;;;;;;;;5185352;28;8831;-69
2022/04/28 06:06:16;;;;;;;;;6.80;6.80;;;;;;;;5202123;28;8808;-69
2022/04/28 06:08:49;;;;;;;;;1.00;1.00;;;;;;;;5188777;28;8808;-69
2022/04/28 06:11:20;;;;;;;;;8.00;8.00;;;;;;;;5205783;28;9623;-68
2022/04/28 06:13:51;;;;;;;;;9.80;8.80;;;;;;;;5189268;28;8803;-69
2022/04/28 06:16:40;;;;;;;;;9.00;9.00;;;;;;;;5206492;28;8796;-69
2022/04/28 06:19:21;;;;;;;;;3.80;3.80;;;;;;;;5207913;28;8845;-68
2022/04/28 06:22:10;;;;;;;;;6.00;6.00;;;;;;;;5227514;28;8847;-68
2022/04/28 06:24:55;;;;;;;;;3.00;3.00;;;;;;;;5223640;28;9297;-68
2022/04/28 06:27:44;;;;;;;;;7.20;7.20;;;;;;;;5206707;28;8826;-68
2022/04/28 06:30:34;;;;;;;;;67.80;54.00;;;;;;;;5205321;28;8799;-69
2022/04/28 06:33:20;;;;;;;;;20.80;20.80;;;;;;;;5189039;28;8840;-70
2022/04/28 06:35:58;;;;;;;;;5.20;5.20;;;;;;;;5189122;28;8800;-68
2022/04/28 06:38:37;;;;;;;;;1.00;1.00;;;;;;;;5204799;28;8831;-67
2022/04/28 06:41:11;;;;;;;;;34.00;33.00;;;;;;;;5205396;28;8808;-69
2022/04/28 06:43:47;;;;;;;;;3.20;3.20;;;;;;;;5198623;28;9022;-68
2022/04/28 06:46:36;;;;;;;;;33.40;32.00;;;;;;;;5210859;28;9534;-69
2022/04/28 06:49:25;;;;;;;;;7.60;7.60;;;;;;;;5224135;28;9525;-67
2022/04/28 06:52:02;;;;;;;;;1.00;1.00;;;;;;;;5227651;28;8797;-67
2022/04/28 06:55:05;;;;;;;;;2.00;2.00;;;;;;;;5227360;28;8790;-67
2022/04/28 06:57:39;;;;;;;;;1.20;1.20;;;;;;;;5227301;28;9500;-67
2022/04/28 07:00:28;;;;;;;;;19.20;19.20;;;;;;;;5228714;28;8862;-67
2022/04/28 07:02:59;;;;;;;;;8.00;8.00;;;;;;;;5203703;28;9523;-67
2022/04/28 07:05:33;;;;;;;;;4.60;4.60;;;;;;;;5190166;28;9495;-67
2022/04/28 07:08:07;;;;;;;;;9.60;9.40;;;;;;;;5206302;28;9520;-66
2022/04/28 07:10:42;;;;;;;;;4.80;4.00;;;;;;;;5206560;28;8784;-67
2022/04/28 07:13:13;;;;;;;;;8.40;8.40;;;;;;;;5207636;28;8878;-66
2022/04/28 07:16:05;;;;;;;;;40.60;39.60;;;;;;;;5186364;28;9618;-67
2022/04/28 07:18:42;;;;;;;;;31.80;31.80;;;;;;;;5225352;28;8808;-66
2022/04/28 07:21:14;;;;;;;;;4.00;4.00;;;;;;;;5206934;28;8772;-66
2022/04/28 07:23:46;;;;;;;;;0.60;0.60;;;;;;;;5189963;28;8788;-66
2022/04/28 07:26:19;;;;;;;;;14.20;14.20;;;;;;;;5188976;28;8965;-67
2022/04/28 07:28:50;;;;;;;;;14.60;13.80;;;;;;;;5206918;28;8796;-67
2022/04/28 07:31:39;;;;;;;;;4.00;4.00;;;;;;;;5192393;28;8849;-66
2022/04/28 07:34:10;;;;;;;;;8.00;8.00;;;;;;;;5213426;28;8805;-67
2022/04/28 07:36:59;;;;;;;;;0.20;0.20;;;;;;;;5226782;28;11437;-67
2022/04/28 07:40:03;;;;;;;;;86.20;68.60;;;;;;;;5215508;28;9002;-67
2022/04/28 07:42:43;;;;;;;;;5.00;5.00;;;;;;;;5225961;28;8789;-68
2022/04/28 07:45:33;;;;;;;;;20.00;19.80;;;;;;;;5224399;28;8778;-72
2022/04/28 07:48:11;;;;;;;;;2.00;2.00;;;;;;;;5205402;28;8874;-68
2022/04/28 07:51:00;;;;;;;;;1.00;1.00;;;;;;;;5191662;28;8776;-68
2022/04/28 07:53:33;;;;;;;;;2.00;2.00;;;;;;;;5223830;28;8784;-68
2022/04/28 07:56:10;;;;;;;;;0.50;0.50;;;;;;;;5226532;28;8782;-69
2022/04/28 07:58:45;;;;;;;;;11.80;11.80;;;;;;;;5216464;28;11576;-69
2022/04/28 08:01:51;;;;;;;;;11.40;11.40;;;;;;;;5189014;28;8878;-69
2022/04/28 08:04:22;;;;;;;;;66.00;50.60;;;;;;;;5205495;28;8919;-69
2022/04/28 08:07:01;;;;;;;;;44.60;40.00;;;;;;;;5205083;28;8918;-69
2022/04/28 08:09:34;;;;;;;;;3.20;3.20;;;;;;;;5205191;28;8801;-69
2022/04/28 08:12:06;;;;;;;;;38.00;37.25;;;;;;;;5204968;28;8784;-69
2022/04/28 08:14:39;;;;;;;;;59.00;48.80;;;;;;;;5201314;28;8777;-69
2022/04/28 08:17:28;;;;;;;;;16.80;16.60;;;;;;;;5205050;28;8780;-67
2022/04/28 08:19:59;;;;;;;;;6.50;6.50;;;;;;;;5205235;28;8828;-69
2022/04/28 08:22:48;;;;;;;;;17.00;16.60;;;;;;;;5204805;28;11479;-69
2022/04/28 08:25:19;;;;;;;;;2.60;2.60;;;;;;;;5188521;28;8974;-68
2022/04/28 08:27:50;;;;;;;;;5.25;5.25;;;;;;;;5205185;28;8800;-68
2022/04/28 08:30:21;;;;;;;;;6.50;6.50;;;;;;;;5205989;28;8784;-68
2022/04/28 08:32:52;;;;;;;;;13.40;13.40;;;;;;;;5204608;28;11450;-70
2022/04/28 08:35:23;;;;;;;;;3.25;3.25;;;;;;;;5205894;28;8817;-71
2022/04/28 08:37:54;;;;;;;;;44.67;41.33;;;;;;;;5239046;28;8888;-71
2022/04/28 08:40:25;;;;;;;;;2.00;2.00;;;;;;;;5245779;28;11516;-71
2022/04/28 08:42:58;;;;;;;;;6.40;6.40;;;;;;;;5228833;28;11454;-69
2022/04/28 08:45:37;;;;;;;;;4.20;4.20;;;;;;;;5224796;28;8793;-72
2022/04/28 08:48:38;;;;;;;;;2.80;1.80;;;;;;;;5217336;28;8999;-71
2022/04/28 08:51:28;;;;;;;;;11.80;11.40;;;;;;;;5224949;28;8835;-71
2022/04/28 08:54:05;;;;;;;;;0.60;0.60;;;;;;;;5216224;28;8917;-70
2022/04/28 08:56:39;;;;;;;;;2.60;2.60;;;;;;;;5228787;28;8783;-69
2022/04/28 08:59:10;;;;;;;;;4.80;4.60;;;;;;;;5211044;28;8845;-70
2022/04/28 09:01:42;;;;;;;;;1.80;1.40;;;;;;;;5208667;28;8912;-70
2022/04/28 09:04:31;;;;;;;;;2.60;2.60;;;;;;;;5242579;28;8791;-71
2022/04/28 09:07:30;;;;;;;;;2.80;2.80;;;;;;;;5246481;28;8759;-73
2022/04/28 09:10:32;;;;;;;;;7.40;7.40;;;;;;;;5229278;28;8803;-73
2022/04/28 09:16:19;;;;;;;;;3.20;3.20;;;;;;;;5245421;28;8821;-71
2022/04/28 09:18:53;;;;;;;;;6.20;6.20;;;;;;;;5228456;28;9552;-71
2022/04/28 09:21:25;;;;;;;;;2.20;2.20;;;;;;;;5229000;28;8779;-71
2022/04/28 09:23:56;;;;;;;;;18.80;17.40;;;;;;;;5243494;28;8786;-70
2022/04/28 09:26:30;;;;;;;;;61.25;46.75;;;;;;;;5223729;28;8817;-71
2022/04/28 09:29:02;;;;;;;;;74.00;61.20;;;;;;;;5207684;28;8778;-71
2022/04/28 09:31:34;;;;;;;;;57.40;47.20;;;;;;;;5225643;28;8805;-70
2022/04/28 09:34:31;;;;;;;;;10.00;10.00;;;;;;;;5204804;28;8790;-70
2022/04/28 09:37:22;;;;;;;;;2.00;2.00;;;;;;;;5210852;28;8801;-70
2022/04/28 09:42:44;;;;;;;;;37.40;34.80;;;;;;;;5186492;28;8911;-72
2022/04/28 09:45:25;;;;;;;;;90.60;71.60;;;;;;;;5204869;28;8804;-70
2022/04/28 09:47:59;;;;;;;;;71.20;59.00;;;;;;;;5186258;28;8780;-71
2022/04/28 09:50:33;;;;;;;;;2.80;2.80;;;;;;;;5202871;28;9368;-70
2022/04/28 09:53:22;;;;;;;;;39.60;35.80;;;;;;;;5244877;28;8764;-71
2022/04/28 09:56:14;;;;;;;;;23.40;23.20;;;;;;;;5224126;28;8805;-71
2022/04/28 09:59:08;;;;;;;;;17.20;17.20;;;;;;;;5223452;28;8833;-70
2022/04/28 10:01:40;;;;;;;;;28.20;26.00;;;;;;;;5207371;28;8801;-70
2022/04/28 10:04:12;;;;;;;;;5.20;3.80;;;;;;;;5224062;28;8773;-70
2022/04/28 10:07:01;;;;;;;;;10.40;10.40;;;;;;;;5238063;28;8810;-70
2022/04/28 10:09:36;;;;;;;;;24.20;24.20;;;;;;;;5228123;28;8860;-70
2022/04/28 10:12:12;;;;;;;;;17.00;16.80;;;;;;;;5230430;28;9519;-68
2022/04/28 10:15:14;;;;;;;;;50.80;42.00;;;;;;;;5199435;28;9659;-70
2022/04/28 10:17:45;;;;;;;;;10.80;10.80;;;;;;;;5203293;28;8788;-70
2022/04/28 10:20:29;;;;;;;;;23.50;23.50;;;;;;;;5232670;28;8811;-70
2022/04/28 10:23:05;;;;;;;;;5.80;5.40;;;;;;;;5211565;28;9750;-70
2022/04/28 10:32:23;;;;;;;;;5.00;3.00;;;;;;;;5223921;28;8839;-69
2022/04/28 10:35:01;;;;;;;;;5.80;5.80;;;;;;;;5225369;28;8794;-69
2022/04/28 10:37:41;;;;;;;;;10.00;10.00;;;;;;;;5212492;28;8768;-70
2022/04/28 10:40:12;;;;;;;;;12.40;12.00;;;;;;;;5205017;28;8950;-67
2022/04/28 10:42:43;;;;;;;;;5.00;5.00;;;;;;;;5207216;28;8797;-68
2022/04/28 10:45:23;;;;;;;;;27.00;27.00;;;;;;;;5206148;28;8827;-69
2022/04/28 10:48:29;;;;;;;;;10.80;10.80;;;;;;;;5213163;28;11641;-69
2022/04/28 10:51:20;;;;;;;;;2.80;2.80;;;;;;;;5204740;28;8815;-69
2022/04/28 10:54:03;;;;;;;;;0.00;0.00;;;;;;;;5220518;28;8789;-70
2022/04/28 10:56:41;;;;;;;;;0.00;0.00;;;;;;;;5227563;28;8774;-70
2022/04/28 10:59:37;;;;;;;;;0.60;0.60;;;;;;;;5228680;28;8797;-70
2022/04/28 11:02:09;;;;;;;;;9.80;9.80;;;;;;;;5226907;28;8952;-69
2022/04/28 11:04:41;;;;;;;;;5.60;5.60;;;;;;;;5218409;28;8878;-69
2022/04/28 11:07:15;;;;;;;;;5.00;5.00;;;;;;;;5219425;28;8895;-69
2022/04/28 11:09:56;;;;;;;;;19.80;18.60;;;;;;;;5228204;28;8855;-69
2022/04/28 11:12:36;;;;;;;;;9.20;9.20;;;;;;;;5198428;28;8858;-70
2022/04/28 11:15:10;;;;;;;;;26.80;24.80;;;;;;;;5206443;28;8777;-69
2022/04/28 11:17:44;;;;;;;;;24.20;23.60;;;;;;;;5206388;28;8788;-70
2022/04/28 11:20:16;;;;;;;;;36.40;35.60;;;;;;;;5207856;28;8808;-70
2022/04/28 11:22:55;;;;;;;;;77.60;59.60;;;;;;;;5215992;28;9434;-70
2022/04/28 11:25:26;;;;;;;;;67.40;53.20;;;;;;;;5226057;28;8855;-69
2022/04/28 11:27:58;;;;;;;;;61.80;52.60;;;;;;;;5226585;28;8794;-69
2022/04/28 11:30:29;;;;;;;;;10.40;10.40;;;;;;;;5209966;28;8762;-69
2022/04/28 11:33:20;;;;;;;;;57.60;45.60;;;;;;;;5227049;28;8770;-69
2022/04/28 11:35:51;;;;;;;;;72.40;56.80;;;;;;;;5225798;28;8774;-70
2022/04/28 11:38:26;;;;;;;;;36.20;34.80;;;;;;;;5220928;28;8828;-69
2022/04/28 11:40:58;;;;;;;;;5.00;5.00;;;;;;;;5222899;28;8788;-70
2022/04/28 11:43:31;;;;;;;;;7.20;7.20;;;;;;;;5215080;28;9030;-70
2022/04/28 11:46:02;;;;;;;;;21.80;18.00;;;;;;;;5246930;28;8787;-70
2022/04/28 11:48:35;;;;;;;;;15.20;14.40;;;;;;;;5246991;28;9544;-70
2022/04/28 11:51:06;;;;;;;;;11.00;11.00;;;;;;;;5247994;28;9599;-70
2022/04/28 11:53:41;;;;;;;;;8.25;8.25;;;;;;;;5248498;28;8800;-70
2022/04/28 11:56:19;;;;;;;;;11.80;11.80;;;;;;;;5229878;28;8789;-70
2022/04/28 11:58:51;;;;;;;;;13.00;12.20;;;;;;;;5212370;28;8819;-68
2022/04/28 12:01:40;;;;;;;;;4.20;4.20;;;;;;;;5206752;28;8780;-68
2022/04/28 12:04:12;;;;;;;;;10.25;10.25;;;;;;;;5223207;28;8798;-68
2022/04/28 12:06:46;;;;;;;;;19.60;19.60;;;;;;;;5228724;28;11413;-69
2022/04/28 12:14:57;;;;;;;;;2.80;2.80;;;;;;;;5227441;28;8786;-69
2022/04/28 12:20:36;;;;;;;;;3.00;3.00;;;;;;;;5226759;28;8802;-69
2022/04/28 12:23:07;;;;;;;;;39.50;31.50;;;;;;;;5226817;28;8789;-69
2022/04/28 12:25:40;;;;;;;;;21.75;19.50;;;;;;;;5224994;28;9584;-69
2022/04/28 12:28:11;;;;;;;;;24.20;23.40;;;;;;;;5226623;28;8820;-69
2022/04/28 12:30:52;;;;;;;;;6.60;6.60;;;;;;;;5226589;28;8798;-69
2022/04/28 12:33:26;;;;;;;;;7.20;7.20;;;;;;;;5226037;28;8935;-70
2022/04/28 12:35:58;;;;;;;;;3.00;3.00;;;;;;;;5222443;28;8809;-69
2022/04/28 12:38:35;;;;;;;;;2.00;2.00;;;;;;;;5206621;28;8893;-69
2022/04/28 12:41:17;;;;;;;;;3.80;3.80;;;;;;;;5225057;28;8794;-69
2022/04/28 12:43:49;;;;;;;;;3.00;3.00;;;;;;;;5220262;28;8926;-69
2022/04/28 12:46:22;;;;;;;;;1.60;1.60;;;;;;;;5206093;28;8796;-69
2022/04/28 12:48:54;;;;;;;;;68.20;52.80;;;;;;;;5205444;28;9494;-70
2022/04/28 12:51:26;;;;;;;;;10.60;9.60;;;;;;;;5222178;28;9512;-69
2022/04/28 12:54:10;;;;;;;;;6.00;6.00;;;;;;;;5226181;28;9617;-68
2022/04/28 12:56:54;;;;;;;;;15.80;15.20;;;;;;;;5225398;28;9537;-68
2022/04/28 12:59:30;;;;;;;;;8.80;8.80;;;;;;;;5221338;28;8802;-69
2022/04/28 13:02:03;;;;;;;;;10.40;10.40;;;;;;;;5226006;28;8821;-68
2022/04/28 13:04:35;;;;;;;;;5.00;5.00;;;;;;;;5223899;28;9516;-68
2022/04/28 13:07:09;;;;;;;;;9.80;9.80;;;;;;;;5225006;28;8790;-68
2022/04/28 13:09:40;;;;;;;;;1.00;1.00;;;;;;;;5225846;28;8816;-68
2022/04/28 13:12:12;;;;;;;;;2.20;2.20;;;;;;;;5223755;28;8782;-68
2022/04/28 13:14:43;;;;;;;;;1.40;1.40;;;;;;;;5223848;28;8870;-69
2022/04/28 13:17:14;;;;;;;;;6.75;6.75;;;;;;;;5224760;28;8801;-69
2022/04/28 13:19:45;;;;;;;;;1.00;1.00;;;;;;;;5225730;28;11452;-69
2022/04/28 13:22:16;;;;;;;;;1.00;1.00;;;;;;;;5224255;28;10326;-69
2022/04/28 13:24:47;;;;;;;;;4.50;4.50;;;;;;;;5225441;28;9963;-69
2022/04/28 13:27:18;;;;;;;;;1.00;1.00;;;;;;;;5216623;28;11583;-68
2022/04/28 13:29:49;;;;;;;;;6.25;6.25;;;;;;;;5217533;28;8798;-68
2022/04/28 13:32:20;;;;;;;;;8.25;8.25;;;;;;;;5215972;28;11072;-68
2022/04/28 13:34:56;;;;;;;;;6.40;6.40;;;;;;;;5205677;28;8776;-69
2022/04/28 13:37:27;;;;;;;;;6.00;6.00;;;;;;;;5225964;28;8778;-68
2022/04/28 13:39:58;;;;;;;;;15.25;15.25;;;;;;;;5218319;28;8877;-68
2022/04/28 13:42:47;;;;;;;;;7.00;7.00;;;;;;;;5204866;28;11606;-69
2022/04/28 13:45:17;;;;;;;;;10.75;10.75;;;;;;;;5222430;28;8814;-68
2022/04/28 13:47:48;;;;;;;;;7.75;7.75;;;;;;;;5224997;28;11443;-68
2022/04/28 13:50:19;;;;;;;;;6.00;6.00;;;;;;;;5225229;28;8821;-68
2022/04/28 13:52:50;;;;;;;;;6.00;6.00;;;;;;;;5223575;28;8797;-68
2022/04/28 13:55:21;;;;;;;;;2.25;2.25;;;;;;;;5220167;28;11501;-68
2022/04/28 13:57:52;;;;;;;;;6.20;6.20;;;;;;;;5215251;28;8832;-69
2022/04/28 14:00:23;;;;;;;;;6.25;6.25;;;;;;;;5208573;28;8817;-69
2022/04/28 14:02:54;;;;;;;;;6.00;6.00;;;;;;;;5214917;28;11544;-70
2022/04/28 14:05:26;;;;;;;;;18.75;18.75;;;;;;;;5245842;28;8775;-69
2022/04/28 14:07:57;;;;;;;;;12.60;12.60;;;;;;;;5245219;28;8827;-69
2022/04/28 14:10:49;;;;;;;;;15.40;15.40;;;;;;;;5245631;28;8804;-69
2022/04/28 14:13:20;;;;;;;;;15.60;15.60;;;;;;;;5233033;28;8952;-69
2022/04/28 14:15:52;;;;;;;;;17.20;17.20;;;;;;;;5224913;28;8777;-68
2022/04/28 14:18:23;;;;;;;;;15.75;15.75;;;;;;;;5224761;28;8844;-68
2022/04/28 14:20:54;;;;;;;;;11.80;11.60;;;;;;;;5224474;28;10045;-68
2022/04/28 14:23:26;;;;;;;;;11.40;10.80;;;;;;;;5222275;28;8789;-68
2022/04/28 14:25:57;;;;;;;;;11.60;11.60;;;;;;;;5211984;28;8860;-68
2022/04/28 14:28:28;;;;;;;;;10.20;10.20;;;;;;;;5210703;28;8824;-68
2022/04/28 14:30:59;;;;;;;;;3.00;3.00;;;;;;;;5216689;28;8870;-69
2022/04/28 14:33:30;;;;;;;;;6.40;6.40;;;;;;;;5209641;28;8859;-69
2022/04/28 14:36:20;;;;;;;;;6.20;6.20;;;;;;;;5219736;28;8848;-69
2022/04/28 14:38:50;;;;;;;;;5.00;5.00;;;;;;;;5216602;28;8861;-69
2022/04/28 14:41:21;;;;;;;;;7.00;6.00;;;;;;;;5227113;28;8793;-68
2022/04/28 14:43:52;;;;;;;;;8.00;8.00;;;;;;;;5227594;28;8821;-70
2022/04/28 14:46:42;;;;;;;;;8.00;7.80;;;;;;;;5228944;28;8790;-70
2022/04/28 14:54:54;;;;;;;;;12.00;12.00;;;;;;;;5240904;28;9430;-69
2022/04/28 14:57:29;;;;;;;;;10.20;10.20;;;;;;;;5213710;28;8812;-70
2022/04/28 15:00:01;;;;;;;;;10.80;10.80;;;;;;;;5206974;28;8840;-69
2022/04/28 15:02:51;;;;;;;;;13.80;13.00;;;;;;;;5211619;28;8884;-70
2022/04/28 15:05:21;;;;;;;;;6.40;6.00;;;;;;;;5227135;28;8809;-71
2022/04/28 15:07:52;;;;;;;;;9.25;9.25;;;;;;;;5227344;28;8794;-70
2022/04/28 15:10:23;;;;;;;;;5.00;5.00;;;;;;;;5212899;28;11603;-70
2022/04/28 15:12:55;;;;;;;;;5.50;5.50;;;;;;;;5206203;28;9824;-72
2022/04/28 15:15:25;;;;;;;;;12.00;12.00;;;;;;;;5228310;28;8870;-69
2022/04/28 15:17:56;;;;;;;;;9.33;9.33;;;;;;;;5248762;28;9575;-70
2022/04/28 15:20:30;;;;;;;;;8.67;8.67;;;;;;;;5249051;28;11567;-70
2022/04/28 15:23:01;;;;;;;;;5.00;5.00;;;;;;;;5249196;28;8819;-69
2022/04/28 15:25:32;;;;;;;;;13.33;13.33;;;;;;;;5215708;28;8938;-70
2022/04/28 15:28:03;;;;;;;;;6.00;6.00;;;;;;;;5206618;28;8772;-70
2022/04/28 15:30:40;;;;;;;;;11.00;11.00;;;;;;;;5189929;28;8807;-69
2022/04/28 15:33:11;;;;;;;;;13.25;13.25;;;;;;;;5210979;28;8800;-71
2022/04/28 15:35:42;;;;;;;;;14.33;14.33;;;;;;;;5220799;28;8834;-70
2022/04/28 15:38:13;;;;;;;;;14.00;14.00;;;;;;;;5225630;28;8823;-70
2022/04/28 15:40:45;;;;;;;;;13.40;13.40;;;;;;;;5232427;28;8812;-70
2022/04/28 15:43:16;;;;;;;;;12.00;12.00;;;;;;;;5247498;28;8818;-71
2022/04/28 15:45:47;;;;;;;;;9.50;9.50;;;;;;;;5233544;28;8832;-72
2022/04/28 15:48:18;;;;;;;;;10.00;10.00;;;;;;;;5248072;28;11622;-73
2022/04/28 15:50:49;;;;;;;;;11.00;11.00;;;;;;;;5242046;28;8825;-71
2022/04/28 15:53:20;;;;;;;;;9.25;9.25;;;;;;;;5227380;28;8778;-71
2022/04/28 15:55:51;;;;;;;;;7.00;7.00;;;;;;;;5228714;28;11526;-71
2022/04/28 15:58:22;;;;;;;;;17.00;15.75;;;;;;;;5229297;28;11509;-70
2022/04/28 16:00:56;;;;;;;;;12.20;12.20;;;;;;;;5226667;28;8774;-70
2022/04/28 16:03:27;;;;;;;;;16.25;16.25;;;;;;;;5233520;28;8771;-70
2022/04/28 16:05:58;;;;;;;;;31.60;30.00;;;;;;;;5237009;28;8774;-70
2022/04/28 16:08:30;;;;;;;;;37.40;35.00;;;;;;;;5225726;28;8802;-70
2022/04/28 16:11:04;;;;;;;;;37.50;34.50;;;;;;;;5226434;28;8832;-70
2022/04/28 16:13:35;;;;;;;;;33.60;32.40;;;;;;;;5225399;28;11021;-71
2022/04/28 16:16:25;;;;;;;;;30.00;29.20;;;;;;;;5223728;28;8886;-72
2022/04/28 16:19:01;;;;;;;;;25.60;25.60;;;;;;;;5224346;28;8829;-71
2022/04/28 16:21:32;;;;;;;;;33.20;27.40;;;;;;;;5225698;28;8811;-70
2022/04/28 16:24:03;;;;;;;;;27.80;27.20;;;;;;;;5223313;28;8810;-70
2022/04/28 16:26:34;;;;;;;;;28.40;28.40;;;;;;;;5224044;28;8813;-69